Time;durP1;ratioP1;P1;durP2;ratioP2;P2;SDS_P1;SDS_P2;PMS_P1;PMS_P2;Temp;Humidity;BMP_temperature;BMP_pressure;BME280_temperature;BME280_humidity;BME280_pressure;Samples;Min_cycle;Max_cycle;Signal;HPM_P1;HPM_P2
2022/05/06 00:04:08;;;;;;;12.37;8.15;;;12.70;61.30;;;;;;2335880;57;27746;-76
2022/05/06 00:06:36;;;;;;;12.88;7.43;;;12.10;65.20;;;;;;2353775;56;21130;-77
2022/05/06 00:09:04;;;;;;;12.52;7.50;;;12.40;64.10;;;;;;2375246;56;21047;-77
2022/05/06 00:11:32;;;;;;;12.18;7.55;;;12.40;62.90;;;;;;2375457;56;21035;-77
2022/05/06 00:13:59;;;;;;;13.82;7.43;;;12.50;62.40;;;;;;2375082;56;21031;-77
2022/05/06 00:16:27;;;;;;;13.50;6.85;;;12.50;62.00;;;;;;2374861;56;21050;-77
2022/05/06 00:18:55;;;;;;;9.75;6.43;;;12.50;61.90;;;;;;2375332;56;21102;-77
2022/05/06 00:21:22;;;;;;;12.30;6.93;;;12.50;61.90;;;;;;2374680;56;21119;-76
2022/05/06 00:23:50;;;;;;;12.70;8.20;;;12.40;62.00;;;;;;2375029;56;21031;-77
2022/05/06 00:26:17;;;;;;;11.10;7.45;;;12.40;62.00;;;;;;2374610;56;21058;-76
2022/05/06 00:28:44;;;;;;;9.82;6.32;;;12.40;62.00;;;;;;2375184;56;21111;-77
2022/05/06 00:31:12;;;;;;;13.85;7.90;;;12.40;62.10;;;;;;2374980;56;21644;-76
2022/05/06 00:33:39;;;;;;;13.65;8.20;;;12.30;62.20;;;;;;2375451;56;21035;-77
2022/05/06 00:36:08;;;;;;;13.75;8.45;;;12.30;62.10;;;;;;2374658;56;21031;-77
2022/05/06 00:38:36;;;;;;;12.35;7.28;;;12.30;62.30;;;;;;2374628;56;21095;-77
2022/05/06 00:41:03;;;;;;;12.73;7.87;;;12.20;62.40;;;;;;2375291;56;21027;-77
2022/05/06 00:43:30;;;;;;;15.18;8.52;;;12.20;62.40;;;;;;2374898;56;21047;-77
2022/05/06 00:45:58;;;;;;;17.23;9.10;;;12.20;62.30;;;;;;2374883;56;21146;-77
2022/05/06 00:48:27;;;;;;;15.00;8.50;;;12.10;62.30;;;;;;2375125;56;21157;-76
2022/05/06 00:51:00;;;;;;;15.25;7.82;;;12.10;62.30;;;;;;2375394;56;21043;-76
2022/05/06 00:56:05;;;;;;;13.90;8.00;;;12.10;62.30;;;;;;2354953;57;22078;-76
2022/05/06 00:58:33;;;;;;;13.85;8.75;;;12.00;62.40;;;;;;2347630;57;21033;-75
2022/05/06 01:01:03;;;;;;;12.90;7.80;;;12.00;62.70;;;;;;2347842;57;21087;-76
2022/05/06 01:03:31;;;;;;;12.40;8.10;;;12.00;62.90;;;;;;2347597;57;21040;-76
2022/05/06 01:05:58;;;;;;;14.38;8.95;;;11.90;63.00;;;;;;2347419;57;21675;-76
2022/05/06 01:08:26;;;;;;;15.60;8.50;;;11.90;63.00;;;;;;2347941;57;21100;-76
2022/05/06 01:10:53;;;;;;;14.13;8.35;;;11.90;63.00;;;;;;2346439;57;21101;-76
2022/05/06 01:13:21;;;;;;;14.98;8.32;;;11.90;63.00;;;;;;2347545;57;21049;-76
2022/05/06 01:15:48;;;;;;;17.08;9.15;;;11.80;63.60;;;;;;2347382;57;21052;-76
2022/05/06 01:18:15;;;;;;;16.02;8.90;;;11.90;62.70;;;;;;2347821;57;21113;-76
2022/05/06 01:20:48;;;;;;;14.63;8.48;;;11.80;62.50;;;;;;2347807;57;21181;-76
2022/05/06 01:23:15;;;;;;;13.52;8.48;;;11.80;62.40;;;;;;2347949;57;21018;-76
2022/05/06 01:25:44;;;;;;;15.70;8.02;;;11.80;62.40;;;;;;2347352;57;21112;-76
2022/05/06 01:28:13;;;;;;;14.60;8.48;;;11.80;62.70;;;;;;2345834;57;21046;-76
2022/05/06 01:30:42;;;;;;;16.05;8.48;;;11.80;62.80;;;;;;2347855;57;21148;-77
2022/05/06 01:33:12;;;;;;;12.00;7.60;;;11.70;62.90;;;;;;2347503;57;21029;-76
2022/05/06 01:35:42;;;;;;;15.77;9.00;;;11.70;63.00;;;;;;2347245;57;21061;-77
2022/05/06 01:38:12;;;;;;;14.63;8.57;;;11.70;62.90;;;;;;2347598;57;21105;-77
2022/05/06 01:40:46;;;;;;;12.00;8.02;;;11.70;63.70;;;;;;2348003;57;21208;-76
2022/05/06 01:43:17;;;;;;;15.00;8.75;;;11.60;62.80;;;;;;2347340;57;21600;-76
2022/05/06 01:45:45;;;;;;;16.20;9.88;;;11.60;62.90;;;;;;2346159;57;21042;-76
2022/05/06 01:48:16;;;;;;;17.35;9.30;;;11.60;62.90;;;;;;2347633;57;21038;-76
2022/05/06 01:50:45;;;;;;;15.75;9.48;;;11.60;62.80;;;;;;2347861;57;21508;-77
2022/05/06 01:53:14;;;;;;;15.45;9.23;;;11.60;62.90;;;;;;2347688;57;21042;-76
2022/05/06 01:55:41;;;;;;;13.93;8.05;;;11.50;62.90;;;;;;2594847;53;21536;-76
2022/05/06 01:58:09;;;;;;;18.50;8.40;;;11.50;62.90;;;;;;2347358;57;21049;-76
2022/05/06 02:00:36;;;;;;;18.08;9.55;;;11.50;63.00;;;;;;2346487;57;21033;-76
2022/05/06 02:03:03;;;;;;;15.38;8.98;;;11.50;62.90;;;;;;2347274;57;21635;-76
2022/05/06 02:05:31;;;;;;;12.68;7.90;;;11.50;62.90;;;;;;2346847;57;21053;-76
2022/05/06 02:07:58;;;;;;;15.00;8.90;;;11.40;63.20;;;;;;2346791;57;21089;-76
2022/05/06 02:10:26;;;;;;;17.83;9.90;;;11.40;63.20;;;;;;2346885;57;21679;-77
2022/05/06 02:12:53;;;;;;;17.12;9.82;;;11.40;63.30;;;;;;2346921;57;21189;-77
2022/05/06 02:15:21;;;;;;;13.05;7.95;;;11.40;63.40;;;;;;2346309;57;21113;-76
2022/05/06 02:17:48;;;;;;;17.33;9.52;;;11.40;63.60;;;;;;2344137;57;21050;-76
2022/05/06 02:20:15;;;;;;;18.92;10.27;;;11.40;63.90;;;;;;2346511;57;21057;-76
2022/05/06 02:22:42;;;;;;;21.37;10.38;;;11.30;63.90;;;;;;2345418;57;21038;-76
2022/05/06 02:25:11;;;;;;;17.92;9.65;;;11.40;63.90;;;;;;2346393;57;21085;-76
2022/05/06 02:27:38;;;;;;;16.12;10.23;;;11.40;64.00;;;;;;2345939;57;21117;-76
2022/05/06 02:35:40;;;;;;;18.77;9.77;;;11.40;64.10;;;;;;2345894;57;21428;-76
2022/05/06 02:38:09;;;;;;;19.95;10.07;;;11.40;64.50;;;;;;2346588;57;21050;-76
2022/05/06 02:40:38;;;;;;;18.10;9.93;;;11.30;64.80;;;;;;2346340;57;21073;-77
2022/05/06 02:43:07;;;;;;;19.02;10.05;;;11.30;65.20;;;;;;2346700;57;21042;-77
2022/05/06 02:45:34;;;;;;;15.52;8.98;;;11.30;65.40;;;;;;2346262;57;21121;-76
2022/05/06 02:48:03;;;;;;;14.52;8.75;;;11.30;65.70;;;;;;2346728;57;21029;-76
2022/05/06 02:50:30;;;;;;;19.17;10.00;;;11.30;65.70;;;;;;2346626;57;21042;-77
2022/05/06 02:52:57;;;;;;;19.80;9.55;;;11.30;65.70;;;;;;2346299;57;21127;-77
2022/05/06 02:55:25;;;;;;;16.33;9.52;;;11.30;65.80;;;;;;2345502;57;21038;-76
2022/05/06 02:57:52;;;;;;;16.00;9.93;;;11.30;65.80;;;;;;2346612;57;21058;-76
2022/05/06 03:00:20;;;;;;;18.50;9.80;;;11.30;65.70;;;;;;2346366;57;21029;-76
2022/05/06 03:02:48;;;;;;;17.95;10.70;;;11.20;65.80;;;;;;2346485;57;21041;-75
2022/05/06 03:05:15;;;;;;;16.85;9.57;;;11.20;65.70;;;;;;2346310;57;21113;-77
2022/05/06 03:07:43;;;;;;;21.00;10.18;;;11.20;65.60;;;;;;2346350;57;21060;-76
2022/05/06 03:10:11;;;;;;;18.52;10.45;;;11.20;66.50;;;;;;2346464;57;21026;-76
2022/05/06 03:12:42;;;;;;;15.73;9.38;;;11.20;65.70;;;;;;2345836;57;21030;-75
2022/05/06 03:15:10;;;;;;;15.88;10.02;;;11.10;65.80;;;;;;2346397;57;21603;-76
2022/05/06 03:17:38;;;;;;;19.50;9.30;;;11.10;65.90;;;;;;2345998;57;21054;-76
2022/05/06 03:20:08;;;;;;;16.42;9.75;;;11.10;65.90;;;;;;2346700;57;21034;-76
2022/05/06 03:22:41;;;;;;;17.25;9.68;;;11.10;65.90;;;;;;2346851;57;21116;-76
2022/05/06 03:25:10;;;;;;;21.80;9.55;;;11.10;65.90;;;;;;2346557;57;21029;-75
2022/05/06 03:30:23;;;;;;;14.98;9.07;;;11.00;65.80;;;;;;2346367;57;21061;-76
2022/05/06 03:32:51;;;;;;;18.08;9.90;;;11.00;65.80;;;;;;2346870;57;21259;-76
2022/05/06 03:35:19;;;;;;;16.83;9.35;;;10.90;65.90;;;;;;2346182;57;21134;-77
2022/05/06 03:37:46;;;;;;;16.33;9.00;;;10.90;65.80;;;;;;2346541;57;21041;-77
2022/05/06 03:40:15;;;;;;;14.68;8.43;;;10.90;65.60;;;;;;2346631;57;21097;-76
2022/05/06 03:42:42;;;;;;;14.07;8.65;;;10.90;65.60;;;;;;2346016;57;21188;-76
2022/05/06 03:45:11;;;;;;;14.85;8.35;;;10.80;65.40;;;;;;2345648;57;21117;-77
2022/05/06 03:47:38;;;;;;;11.80;7.95;;;10.80;65.40;;;;;;2346492;57;21160;-75
2022/05/06 03:52:53;;;;;;;17.30;9.13;;;10.80;65.50;;;;;;2346853;57;21033;-75
2022/05/06 03:55:20;;;;;;;17.00;8.93;;;10.80;65.30;;;;;;2345975;57;21042;-77
2022/05/06 03:57:47;;;;;;;14.57;8.70;;;10.80;65.20;;;;;;2346666;57;21897;-76
2022/05/06 04:00:17;;;;;;;21.58;10.35;;;10.70;65.20;;;;;;2344752;57;21108;-76
2022/05/06 04:02:44;;;;;;;13.20;7.65;;;10.70;65.30;;;;;;2345616;57;21101;-76
2022/05/06 04:05:11;;;;;;;13.48;7.87;;;10.70;65.30;;;;;;2346312;57;21029;-76
2022/05/06 04:07:40;;;;;;;14.63;8.65;;;10.60;65.50;;;;;;2346147;57;21026;-76
2022/05/06 04:10:09;;;;;;;20.62;10.57;;;10.50;65.90;;;;;;2346458;57;21737;-76
2022/05/06 04:12:36;;;;;;;24.08;13.52;;;10.50;66.30;;;;;;2346471;57;21080;-76
2022/05/06 04:15:06;;;;;;;25.73;12.43;;;10.50;67.10;;;;;;2346181;57;21568;-76
2022/05/06 04:17:33;;;;;;;16.50;10.00;;;10.40;67.50;;;;;;2344981;57;21049;-77
2022/05/06 04:25:32;;;;;;;20.92;10.75;;;10.50;68.00;;;;;;2345438;57;21516;-76
2022/05/06 04:27:59;;;;;;;28.08;12.55;;;10.50;68.00;;;;;;2346589;57;21042;-76
2022/05/06 04:30:26;;;;;;;32.70;16.05;;;10.50;68.30;;;;;;2346579;57;21540;-75
2022/05/06 04:32:53;;;;;;;34.90;16.58;;;10.60;68.40;;;;;;2346535;57;21616;-75
2022/05/06 04:35:20;;;;;;;42.90;17.27;;;10.60;68.60;;;;;;2345128;57;21133;-76
2022/05/06 04:37:48;;;;;;;52.53;18.95;;;10.70;68.70;;;;;;2346512;57;21338;-75
2022/05/06 04:40:16;;;;;;;43.40;17.55;;;10.80;68.90;;;;;;2346238;57;21061;-77
2022/05/06 04:42:45;;;;;;;48.00;18.10;;;10.80;69.20;;;;;;2489253;52;21085;-77
2022/05/06 04:45:12;;;;;;;42.83;17.40;;;10.80;69.30;;;;;;2348210;57;21069;-75
2022/05/06 04:47:39;;;;;;;29.95;15.50;;;10.90;69.20;;;;;;2347331;57;21126;-75
2022/05/06 04:50:08;;;;;;;29.55;14.98;;;10.90;69.40;;;;;;2347087;57;21213;-76
2022/05/06 04:52:36;;;;;;;33.28;15.98;;;10.90;69.70;;;;;;2593846;53;21055;-75
2022/05/06 04:55:04;;;;;;;29.63;15.50;;;11.00;69.80;;;;;;2593948;53;21063;-77
2022/05/06 04:57:31;;;;;;;35.72;16.98;;;11.10;69.70;;;;;;2346534;57;21043;-75
2022/05/06 04:59:58;;;;;;;28.55;15.43;;;11.10;69.90;;;;;;2346830;57;21070;-74
2022/05/06 05:02:27;;;;;;;28.90;14.73;;;11.10;70.00;;;;;;2346948;57;21063;-75
2022/05/06 05:04:58;;;;;;;33.47;15.45;;;11.20;70.10;;;;;;2346898;57;21302;-75
2022/05/06 05:07:25;;;;;;;20.52;12.43;;;11.20;70.10;;;;;;2346800;57;21110;-75
2022/05/06 05:09:53;;;;;;;30.77;14.55;;;11.30;70.30;;;;;;2346619;57;21190;-75
2022/05/06 05:12:20;;;;;;;32.60;15.93;;;11.30;70.20;;;;;;2594373;53;22139;-75
2022/05/06 05:14:47;;;;;;;28.77;15.23;;;11.30;70.20;;;;;;2593217;53;21123;-78
2022/05/06 05:17:14;;;;;;;27.15;14.20;;;11.40;70.20;;;;;;2346607;57;21071;-77
2022/05/06 05:19:42;;;;;;;34.58;17.08;;;11.50;70.20;;;;;;2347031;57;21047;-77
2022/05/06 05:22:09;;;;;;;34.03;17.60;;;11.50;70.20;;;;;;2594168;53;21546;-76
2022/05/06 05:24:36;;;;;;;26.70;15.82;;;11.50;69.90;;;;;;2347386;57;21031;-72
2022/05/06 05:27:05;;;;;;;45.40;18.25;;;11.60;70.00;;;;;;2346045;57;21604;-72
2022/05/06 05:29:32;;;;;;;34.50;18.10;;;11.60;69.90;;;;;;2593833;53;21553;-73
2022/05/06 05:31:59;;;;;;;40.08;19.02;;;11.70;69.90;;;;;;2345756;57;21687;-74
2022/05/06 05:34:26;;;;;;;38.95;19.15;;;11.70;69.70;;;;;;2346859;57;21102;-72
2022/05/06 05:36:54;;;;;;;30.70;16.62;;;11.80;69.70;;;;;;2593304;53;21130;-76
2022/05/06 05:39:21;;;;;;;33.15;17.50;;;11.80;69.60;;;;;;2346730;57;21139;-75
2022/05/06 05:41:48;;;;;;;29.55;16.62;;;11.80;69.30;;;;;;2345813;57;21114;-75
2022/05/06 05:49:52;;;;;;;36.95;22.33;;;11.80;69.00;;;;;;2336197;57;38153;-76
2022/05/06 05:52:20;;;;;;;31.67;18.37;;;11.50;72.30;;;;;;2347415;57;21034;-74
2022/05/06 05:54:47;;;;;;;41.72;18.67;;;11.70;71.60;;;;;;2347793;57;21165;-75
2022/05/06 05:57:14;;;;;;;35.90;17.83;;;11.80;70.90;;;;;;2344877;57;21022;-74
2022/05/06 05:59:41;;;;;;;25.52;14.60;;;11.90;70.60;;;;;;2344933;57;21034;-75
2022/05/06 06:02:11;;;;;;;33.20;16.92;;;11.90;70.40;;;;;;2345236;57;21746;-74
2022/05/06 06:04:38;;;;;;;31.25;17.27;;;12.00;70.30;;;;;;2345332;57;21080;-75
2022/05/06 06:07:06;;;;;;;28.38;15.90;;;11.90;70.10;;;;;;2345097;57;21110;-75
2022/05/06 06:09:33;;;;;;;25.10;14.80;;;12.00;70.30;;;;;;2345813;57;21105;-75
2022/05/06 06:12:01;;;;;;;28.40;15.07;;;12.00;70.00;;;;;;2345608;57;21185;-76
2022/05/06 06:14:28;;;;;;;36.28;18.62;;;12.00;69.70;;;;;;2345642;57;21062;-77
2022/05/06 06:16:56;;;;;;;52.53;17.45;;;12.00;70.40;;;;;;2344867;57;21050;-76
2022/05/06 06:19:23;;;;;;;36.78;18.50;;;12.00;70.50;;;;;;2345326;57;21045;-76
2022/05/06 06:21:51;;;;;;;33.15;17.92;;;11.90;71.00;;;;;;2345617;57;21612;-76
2022/05/06 06:24:19;;;;;;;41.00;17.58;;;11.90;71.70;;;;;;2592651;53;21126;-74
2022/05/06 06:26:46;;;;;;;35.75;18.42;;;11.90;72.30;;;;;;2345502;57;21548;-76
2022/05/06 06:29:13;;;;;;;39.22;19.48;;;11.90;72.70;;;;;;2346150;57;21049;-77
2022/05/06 06:31:41;;;;;;;40.88;19.62;;;11.90;73.00;;;;;;2591984;53;21168;-74
2022/05/06 06:34:08;;;;;;;41.42;19.98;;;11.90;73.30;;;;;;2345786;57;21042;-76
2022/05/06 06:36:35;;;;;;;36.00;18.85;;;11.90;73.50;;;;;;2591795;53;21634;-75
2022/05/06 06:39:03;;;;;;;42.60;19.98;;;11.90;73.70;;;;;;2346299;57;21568;-76
2022/05/06 06:41:30;;;;;;;51.63;23.10;;;12.00;73.50;;;;;;2346104;57;21108;-76
2022/05/06 06:43:57;;;;;;;50.58;23.35;;;12.10;74.10;;;;;;2592990;53;21105;-76
2022/05/06 06:46:24;;;;;;;46.10;22.75;;;12.00;74.40;;;;;;2345684;57;21050;-74
2022/05/06 06:48:52;;;;;;;41.60;20.42;;;12.10;74.80;;;;;;2344949;57;21042;-76
2022/05/06 06:51:19;;;;;;;45.03;20.85;;;12.10;75.00;;;;;;2345754;57;21026;-76
2022/05/06 06:53:48;;;;;;;37.17;18.95;;;12.10;75.10;;;;;;2346542;57;21126;-75
2022/05/06 06:56:15;;;;;;;45.42;22.13;;;12.20;74.80;;;;;;2593468;53;21126;-76
2022/05/06 06:58:43;;;;;;;48.40;21.65;;;12.20;74.80;;;;;;2346647;57;21073;-74
2022/05/06 07:01:11;;;;;;;38.50;20.12;;;12.30;75.00;;;;;;2591635;53;21117;-75
2022/05/06 07:03:38;;;;;;;37.90;19.12;;;12.30;75.10;;;;;;2345316;57;21042;-76
2022/05/06 07:14:25;;;;;;;38.95;18.58;;;12.30;76.30;;;;;;2591020;53;21331;-75
2022/05/06 07:16:53;;;;;;;36.50;18.27;;;12.30;76.60;;;;;;2591780;53;21061;-75
2022/05/06 07:19:21;;;;;;;42.83;19.35;;;12.40;77.00;;;;;;2345263;57;21042;-75
2022/05/06 07:21:52;;;;;;;39.10;19.77;;;12.40;77.20;;;;;;2592176;52;21045;-73
2022/05/06 07:24:19;;;;;;;36.35;18.35;;;12.50;77.20;;;;;;2345126;57;21049;-75
2022/05/06 07:26:47;;;;;;;54.33;21.08;;;12.60;76.50;;;;;;2344929;57;21034;-75
2022/05/06 07:29:16;;;;;;;62.35;21.92;;;12.80;76.30;;;;;;2591851;53;21117;-74
2022/05/06 07:31:43;;;;;;;58.75;21.40;;;12.90;76.10;;;;;;2591942;53;21058;-75
2022/05/06 07:34:11;;;;;;;42.15;20.25;;;12.90;75.90;;;;;;2344868;57;21112;-75
2022/05/06 07:36:41;;;;;;;45.45;21.62;;;13.00;75.80;;;;;;2591419;52;21085;-75
2022/05/06 07:39:10;;;;;;;42.95;20.42;;;13.10;75.60;;;;;;2591945;53;21030;-75
2022/05/06 07:41:38;;;;;;;51.13;22.90;;;13.10;75.40;;;;;;2591419;53;21121;-74
2022/05/06 07:44:07;;;;;;;43.50;22.90;;;13.20;75.50;;;;;;2344619;57;21112;-74
2022/05/06 07:46:35;;;;;;;103.65;25.83;;;13.20;75.30;;;;;;2344355;57;21053;-75
2022/05/06 07:49:03;;;;;;;49.67;22.37;;;13.30;75.30;;;;;;2344387;57;21117;-75
2022/05/06 07:51:31;;;;;;;37.63;19.80;;;13.40;75.30;;;;;;2345103;57;21086;-75
2022/05/06 07:53:58;;;;;;;40.95;19.67;;;13.50;74.90;;;;;;2344917;57;21053;-76
2022/05/06 07:56:26;;;;;;;39.50;19.52;;;13.60;74.80;;;;;;2344828;57;21045;-75
2022/05/06 07:58:54;;;;;;;43.28;21.02;;;13.70;74.50;;;;;;2345247;57;21022;-75
2022/05/06 08:04:32;;;;;;;45.10;22.10;;;13.80;74.20;;;;;;2345092;57;21090;-74
2022/05/06 08:07:16;;;;;;;35.55;18.90;;;13.90;74.10;;;;;;2344523;57;21041;-74
2022/05/06 08:09:44;;;;;;;36.30;19.08;;;14.00;73.40;;;;;;2591682;53;21537;-75
2022/05/06 08:12:13;;;;;;;42.30;20.45;;;14.10;73.50;;;;;;2345099;57;21049;-73
2022/05/06 08:14:42;;;;;;;34.58;16.87;;;14.10;73.40;;;;;;2591780;53;21022;-75
2022/05/06 08:17:09;;;;;;;32.22;16.27;;;14.20;73.30;;;;;;2344356;57;21087;-75
2022/05/06 08:19:37;;;;;;;25.75;15.35;;;14.30;72.60;;;;;;2344313;57;21196;-75
2022/05/06 08:22:05;;;;;;;47.35;17.33;;;14.40;71.20;;;;;;2344694;57;21122;-73
2022/05/06 08:24:33;;;;;;;29.95;16.48;;;14.50;70.60;;;;;;2345009;57;21088;-75
2022/05/06 08:27:01;;;;;;;27.08;14.55;;;14.50;70.40;;;;;;2591656;53;21053;-75
2022/05/06 08:29:28;;;;;;;28.92;15.38;;;14.60;69.40;;;;;;2591602;53;21038;-76
2022/05/06 08:31:56;;;;;;;28.85;16.48;;;14.70;68.40;;;;;;2345071;57;21607;-75
2022/05/06 08:34:23;;;;;;;29.63;16.50;;;14.70;69.20;;;;;;2592001;53;21122;-75
2022/05/06 08:36:50;;;;;;;26.85;16.52;;;14.80;69.00;;;;;;2342455;57;21069;-76
2022/05/06 08:39:18;;;;;;;32.88;17.80;;;14.80;69.10;;;;;;2344182;57;21054;-76
2022/05/06 08:41:45;;;;;;;26.70;15.00;;;14.90;69.20;;;;;;2344781;57;21658;-74
2022/05/06 08:52:34;;;;;;;26.40;14.25;;;15.20;68.10;;;;;;2343400;57;21018;-72
2022/05/06 08:55:03;;;;;;;21.52;12.70;;;15.20;67.70;;;;;;2343615;57;21038;-73
2022/05/06 08:57:31;;;;;;;22.70;11.88;;;15.40;67.50;;;;;;2590973;53;21030;-74
2022/05/06 08:59:59;;;;;;;22.02;12.20;;;15.40;66.60;;;;;;2344808;57;21037;-75
2022/05/06 09:02:26;;;;;;;20.98;12.37;;;15.50;66.50;;;;;;2345198;57;21035;-75
2022/05/06 09:04:53;;;;;;;22.70;12.55;;;15.60;66.20;;;;;;2344186;57;21026;-73
2022/05/06 09:07:23;;;;;;;21.20;11.10;;;15.70;65.80;;;;;;2344132;57;21035;-74
2022/05/06 09:10:15;;;;;;;17.60;11.20;;;15.80;65.70;;;;;;2591707;52;21054;-74
2022/05/06 09:12:44;;;;;;;24.12;11.63;;;15.80;65.10;;;;;;2344209;57;21082;-74
2022/05/06 09:21:09;;;;;;;21.35;11.20;;;16.00;63.80;;;;;;2355522;57;22595;-73
2022/05/06 09:23:37;;;;;;;24.08;12.02;;;16.10;63.60;;;;;;2594917;52;21026;-74
2022/05/06 09:26:15;;;;;;;19.90;11.27;;;16.10;62.50;;;;;;2346235;57;21065;-74
2022/05/06 09:28:43;;;;;;;31.48;13.65;;;16.20;63.10;;;;;;2345344;57;21034;-73
2022/05/06 09:31:11;;;;;;;22.92;12.55;;;16.30;62.60;;;;;;2592573;53;21038;-74
2022/05/06 09:33:41;;;;;;;20.00;11.02;;;16.30;62.70;;;;;;2344991;57;21049;-73
2022/05/06 09:36:25;;;;;;;19.25;10.93;;;16.40;62.20;;;;;;2345243;57;21053;-75
2022/05/06 09:39:02;;;;;;;28.23;13.73;;;16.50;61.90;;;;;;2345374;57;21037;-75
2022/05/06 09:41:30;;;;;;;29.85;12.70;;;16.60;61.60;;;;;;2345742;57;21443;-77
2022/05/06 09:44:01;;;;;;;19.00;11.07;;;16.60;61.30;;;;;;2593209;53;21380;-76
2022/05/06 09:46:28;;;;;;;19.08;9.88;;;16.70;60.60;;;;;;2345216;57;21038;-75
2022/05/06 09:48:56;;;;;;;14.25;8.35;;;16.80;59.40;;;;;;2345532;57;21861;-74
2022/05/06 09:51:28;;;;;;;13.77;7.43;;;16.90;59.80;;;;;;2345252;57;21120;-75
2022/05/06 09:53:56;;;;;;;12.73;7.75;;;17.00;59.30;;;;;;2345597;57;21058;-75
2022/05/06 09:56:25;;;;;;;10.73;7.45;;;17.10;59.50;;;;;;2345181;57;21054;-75
2022/05/06 09:58:53;;;;;;;8.73;5.32;;;17.20;58.30;;;;;;2345904;57;21050;-75
2022/05/06 10:01:21;;;;;;;11.18;6.57;;;17.30;58.00;;;;;;2345444;57;21042;-75
2022/05/06 10:03:48;;;;;;;10.45;7.18;;;17.30;57.40;;;;;;2346158;57;21561;-74
2022/05/06 10:06:15;;;;;;;16.83;7.22;;;17.30;57.70;;;;;;2344871;57;21065;-75
2022/05/06 10:08:48;;;;;;;11.80;7.03;;;17.40;57.70;;;;;;2345651;57;21045;-75
2022/05/06 10:11:22;;;;;;;12.05;7.60;;;17.50;57.30;;;;;;2345401;57;21042;-76
2022/05/06 10:13:50;;;;;;;;;;;17.60;57.50;;;;;;2349073;57;21034;-76
2022/05/06 10:16:17;;;;;;;13.60;8.05;;;17.70;56.60;;;;;;2345195;57;20074;-76
2022/05/06 10:18:46;;;;;;;13.25;8.48;;;17.80;55.70;;;;;;2345639;57;21130;-74
2022/05/06 10:21:14;;;;;;;13.15;7.72;;;17.80;56.10;;;;;;2592259;53;21109;-74
2022/05/06 10:23:46;;;;;;;14.77;9.52;;;17.90;56.50;;;;;;2346039;57;21065;-75
2022/05/06 10:26:41;;;;;;;12.18;7.45;;;18.00;56.20;;;;;;2344466;57;21666;-75
2022/05/06 10:35:15;;;;;;;12.70;7.97;;;18.30;55.40;;;;;;2344559;57;21655;-75
2022/05/06 10:37:44;;;;;;;13.30;8.40;;;18.40;54.80;;;;;;2344823;57;21162;-75
2022/05/06 10:40:33;;;;;;;14.98;9.00;;;18.40;54.50;;;;;;2344500;57;21085;-75
2022/05/06 10:43:59;;;;;;;12.55;7.87;;;18.50;54.80;;;;;;2498327;52;70421;-80
2022/05/06 10:46:37;;;;;;;13.05;7.45;;;18.60;54.90;;;;;;2376762;56;21075;-82
2022/05/06 10:52:47;;;;;;;12.95;7.85;;;18.90;54.00;;;;;;2354739;57;22555;-74
2022/05/06 10:55:25;;;;;;;14.93;8.02;;;19.00;53.80;;;;;;2347284;57;21129;-75
2022/05/06 10:57:58;;;;;;;14.23;7.18;;;19.00;53.30;;;;;;2368396;56;21121;-74
2022/05/06 11:00:28;;;;;;;10.48;6.95;;;19.10;53.30;;;;;;2375257;56;21134;-76
2022/05/06 11:02:58;;;;;;;12.23;8.13;;;19.20;53.20;;;;;;2374340;56;21130;-77
2022/05/06 11:05:26;;;;;;;15.65;8.68;;;19.30;53.20;;;;;;2374556;56;21537;-76
2022/05/06 11:08:00;;;;;;;10.73;7.00;;;19.40;52.50;;;;;;2374959;56;21138;-76
2022/05/06 11:10:30;;;;;;;11.20;7.20;;;19.60;53.00;;;;;;2373929;56;22095;-73
2022/05/06 11:12:59;;;;;;;9.88;6.65;;;19.70;52.50;;;;;;2374342;56;21517;-73
2022/05/06 11:15:30;;;;;;;10.55;6.30;;;19.70;52.30;;;;;;2374509;56;21094;-73
2022/05/06 11:17:59;;;;;;;13.70;6.93;;;19.70;51.60;;;;;;2628122;52;21541;-75
2022/05/06 11:20:28;;;;;;;8.95;5.47;;;19.80;51.60;;;;;;2627863;52;21513;-74
2022/05/06 11:23:03;;;;;;;10.35;6.35;;;19.80;51.00;;;;;;2627576;52;21044;-75
2022/05/06 11:25:32;;;;;;;11.05;5.87;;;19.90;52.00;;;;;;2374492;56;21093;-74
2022/05/06 11:28:01;;;;;;;11.05;6.85;;;20.00;51.70;;;;;;2373945;56;21047;-75
2022/05/06 11:30:30;;;;;;;12.52;6.68;;;20.20;51.70;;;;;;2374866;56;21050;-75
2022/05/06 11:32:59;;;;;;;13.40;6.95;;;20.30;50.70;;;;;;2374109;56;21305;-76
2022/05/06 11:35:36;;;;;;;18.67;8.68;;;20.40;50.60;;;;;;2373819;56;21055;-75
2022/05/06 11:38:04;;;;;;;12.75;6.60;;;20.40;50.00;;;;;;2374081;56;21042;-74
2022/05/06 11:40:36;;;;;;;12.18;6.55;;;20.40;50.30;;;;;;2374357;56;21035;-75
2022/05/06 11:43:06;;;;;;;12.98;6.68;;;20.50;50.00;;;;;;2374070;56;21153;-74
2022/05/06 11:48:22;;;;;;;11.88;7.07;;;20.60;49.40;;;;;;2373934;56;21648;-74
2022/05/06 11:50:55;;;;;;;14.57;8.13;;;20.60;49.50;;;;;;2373972;56;21122;-75
2022/05/06 11:53:26;;;;;;;;;;;20.60;49.80;;;;;;2377883;56;21380;-75
2022/05/06 11:55:55;;;;;;;11.52;6.47;;;20.60;49.60;;;;;;2374414;56;20082;-75
2022/05/06 11:58:24;;;;;;;13.52;6.87;;;20.60;49.20;;;;;;2374236;56;21102;-74
2022/05/06 12:00:53;;;;;;;7.60;5.07;;;20.60;48.70;;;;;;2374958;56;21058;-75
2022/05/06 12:03:21;;;;;;;11.18;6.28;;;20.70;48.90;;;;;;2373518;56;21062;-75
2022/05/06 12:06:06;;;;;;;14.57;5.85;;;20.80;49.10;;;;;;2373536;56;21051;-74
2022/05/06 12:08:35;;;;;;;8.65;5.37;;;21.00;49.40;;;;;;2373229;56;21305;-74
2022/05/06 12:11:07;;;;;;;11.88;5.70;;;21.20;48.60;;;;;;2373428;56;21049;-75
2022/05/06 12:13:38;;;;;;;24.52;6.60;;;21.40;47.90;;;;;;2373454;56;21055;-75
2022/05/06 12:16:08;;;;;;;9.23;5.87;;;21.40;47.30;;;;;;2372911;56;21549;-74
2022/05/06 12:18:36;;;;;;;9.90;6.55;;;21.50;47.10;;;;;;2373987;56;21102;-74
2022/05/06 12:21:18;;;;;;;10.02;5.97;;;21.50;46.90;;;;;;2373393;56;21067;-74
2022/05/06 12:23:52;;;;;;;8.68;5.30;;;21.70;46.90;;;;;;2372937;56;21106;-74
2022/05/06 12:26:31;;;;;;;18.17;6.75;;;21.70;46.80;;;;;;2373189;56;21126;-74
2022/05/06 12:28:58;;;;;;;11.68;5.75;;;21.70;46.10;;;;;;2626720;52;21050;-74
2022/05/06 12:31:32;;;;;;;18.35;6.93;;;21.70;45.90;;;;;;2626995;52;21050;-73
2022/05/06 12:34:07;;;;;;;8.05;5.35;;;21.60;46.20;;;;;;2373544;56;21123;-76
2022/05/06 12:36:36;;;;;;;17.30;7.87;;;21.60;46.70;;;;;;2627029;52;21090;-74
2022/05/06 12:39:21;;;;;;;9.90;6.55;;;21.60;45.90;;;;;;2373594;56;21082;-74
2022/05/06 12:41:49;;;;;;;10.63;5.62;;;21.50;46.20;;;;;;2373915;56;21047;-74
2022/05/06 12:44:22;;;;;;;8.93;6.05;;;21.60;46.30;;;;;;2372670;56;21129;-75
2022/05/06 12:46:50;;;;;;;10.82;6.60;;;21.60;46.20;;;;;;2373372;56;21031;-74
2022/05/06 12:52:06;;;;;;;10.80;6.37;;;21.70;46.20;;;;;;2373659;56;21173;-74
2022/05/06 12:54:33;;;;;;;10.23;6.00;;;21.80;47.30;;;;;;2626968;52;21103;-75
2022/05/06 12:57:01;;;;;;;15.02;6.40;;;21.90;47.00;;;;;;2372733;56;21063;-75
2022/05/06 12:59:29;;;;;;;9.15;6.18;;;22.00;45.90;;;;;;2372683;56;21055;-75
2022/05/06 13:01:56;;;;;;;8.38;5.78;;;22.10;44.90;;;;;;2627079;52;21102;-75
2022/05/06 13:04:23;;;;;;;18.73;6.10;;;22.20;45.30;;;;;;2373764;56;21051;-75
2022/05/06 13:06:51;;;;;;;6.70;4.95;;;22.20;44.60;;;;;;2373476;56;21109;-75
2022/05/06 13:09:18;;;;;;;12.25;5.60;;;22.30;44.20;;;;;;2373854;56;21031;-75
2022/05/06 13:11:46;;;;;;;6.85;4.50;;;22.40;43.70;;;;;;2373906;56;21043;-75
2022/05/06 13:14:13;;;;;;;6.68;4.82;;;22.40;43.80;;;;;;2626037;52;21039;-74
2022/05/06 13:16:40;;;;;;;6.62;4.18;;;22.50;43.90;;;;;;2372432;56;21111;-75
2022/05/06 13:19:09;;;;;;;8.20;3.85;;;22.50;43.80;;;;;;2373014;56;21114;-75
2022/05/06 13:21:38;;;;;;;8.18;5.00;;;22.60;44.10;;;;;;2373422;56;21051;-75
2022/05/06 13:24:07;;;;;;;9.25;5.35;;;22.60;43.70;;;;;;2372985;56;21042;-75
2022/05/06 13:26:35;;;;;;;8.75;4.47;;;22.60;43.50;;;;;;2626161;52;21114;-77
2022/05/06 13:29:03;;;;;;;6.60;4.40;;;22.60;43.50;;;;;;2372698;56;21169;-75
2022/05/06 13:31:31;;;;;;;6.35;4.50;;;22.50;43.30;;;;;;2373289;56;21050;-76
2022/05/06 13:33:58;;;;;;;9.20;4.85;;;22.50;43.20;;;;;;2373342;56;21066;-74
2022/05/06 13:36:26;;;;;;;5.45;3.78;;;22.40;43.30;;;;;;2373141;56;21114;-75
2022/05/06 13:38:53;;;;;;;7.00;4.12;;;22.40;43.80;;;;;;2373362;56;21625;-76
2022/05/06 13:41:20;;;;;;;7.47;4.62;;;22.40;43.10;;;;;;2373545;56;21059;-75
2022/05/06 13:43:47;;;;;;;7.47;4.07;;;22.40;43.30;;;;;;2373368;56;21071;-75
2022/05/06 13:46:15;;;;;;;5.50;3.62;;;22.40;43.70;;;;;;2372974;56;21067;-73
2022/05/06 13:48:42;;;;;;;11.73;4.05;;;22.40;43.30;;;;;;2373831;56;21138;-75
2022/05/06 13:51:09;;;;;;;8.77;4.55;;;22.50;42.90;;;;;;2371662;56;21098;-77